<?xml version="1.0" encoding="UTF-8" standalone="no" ?>
<gpx xmlns="http://www.topografix.com/GPX/1/1" xmlns:xsi="http://www.w3.org/2001/XMLSchema-instance" xsi:schemaLocation="http://www.topografix.com/GPX/1/1 http://www.topografix.com/GPX/1/1/gpx.xsd" version="1.1" creator="VisuGPX - https://www.visugpx.com">
  <metadata>
    <name>Vigie cornillon</name>
    <desc><![CDATA[Rando du 18 mai 2020 pour Grans randonnée (par Sylvie/Marlène)]]></desc>
  </metadata>
  <trk>
    <name><![CDATA[Vigie cornillon]]></name>
    <trkseg>
      <trkpt lat="43.60869" lon="5.06756">
        <ele>56.1</ele>
        <time>2020-05-18T11:33:58Z</time>
      </trkpt>
      <trkpt lat="43.60869" lon="5.06757">
        <ele>56.1</ele>
        <time>2020-05-18T11:33:59Z</time>
      </trkpt>
      <trkpt lat="43.60867" lon="5.06761">
        <ele>56.2</ele>
        <time>2020-05-18T11:34:03Z</time>
      </trkpt>
      <trkpt lat="43.60852" lon="5.06814">
        <ele>57</ele>
        <time>2020-05-18T11:34:39Z</time>
      </trkpt>
      <trkpt lat="43.60857" lon="5.0687">
        <ele>57.5</ele>
        <time>2020-05-18T11:35:13Z</time>
      </trkpt>
      <trkpt lat="43.6086" lon="5.06904">
        <ele>57.6</ele>
        <time>2020-05-18T11:35:44Z</time>
      </trkpt>
      <trkpt lat="43.60863" lon="5.06964">
        <ele>57.8</ele>
        <time>2020-05-18T11:36:19Z</time>
      </trkpt>
      <trkpt lat="43.60859" lon="5.07003">
        <ele>58.1</ele>
        <time>2020-05-18T11:36:48Z</time>
      </trkpt>
      <trkpt lat="43.60866" lon="5.07047">
        <ele>57.7</ele>
        <time>2020-05-18T11:37:19Z</time>
      </trkpt>
      <trkpt lat="43.60878" lon="5.07099">
        <ele>57.7</ele>
        <time>2020-05-18T11:37:52Z</time>
      </trkpt>
      <trkpt lat="43.60893" lon="5.0715">
        <ele>58.4</ele>
        <time>2020-05-18T11:38:26Z</time>
      </trkpt>
      <trkpt lat="43.60899" lon="5.07218">
        <ele>59.4</ele>
        <time>2020-05-18T11:39:07Z</time>
      </trkpt>
      <trkpt lat="43.60864" lon="5.07231">
        <ele>59.1</ele>
        <time>2020-05-18T11:39:37Z</time>
      </trkpt>
      <trkpt lat="43.60818" lon="5.07252">
        <ele>59</ele>
        <time>2020-05-18T11:40:20Z</time>
      </trkpt>
      <trkpt lat="43.60781" lon="5.07268">
        <ele>59.2</ele>
        <time>2020-05-18T11:40:58Z</time>
      </trkpt>
      <trkpt lat="43.60743" lon="5.07272">
        <ele>58.9</ele>
        <time>2020-05-18T11:41:30Z</time>
      </trkpt>
      <trkpt lat="43.607" lon="5.07277">
        <ele>58.4</ele>
        <time>2020-05-18T11:42:07Z</time>
      </trkpt>
      <trkpt lat="43.60656" lon="5.07279">
        <ele>58</ele>
        <time>2020-05-18T11:42:44Z</time>
      </trkpt>
      <trkpt lat="43.6062" lon="5.07265">
        <ele>58</ele>
        <time>2020-05-18T11:43:17Z</time>
      </trkpt>
      <trkpt lat="43.606" lon="5.07215">
        <ele>57.7</ele>
        <time>2020-05-18T11:43:48Z</time>
      </trkpt>
      <trkpt lat="43.60577" lon="5.07161">
        <ele>57.1</ele>
        <time>2020-05-18T11:44:25Z</time>
      </trkpt>
      <trkpt lat="43.60554" lon="5.07109">
        <ele>56.8</ele>
        <time>2020-05-18T11:45:00Z</time>
      </trkpt>
      <trkpt lat="43.60529" lon="5.07091">
        <ele>56.8</ele>
        <time>2020-05-18T11:45:32Z</time>
      </trkpt>
      <trkpt lat="43.60505" lon="5.0707">
        <ele>56.6</ele>
        <time>2020-05-18T11:46:03Z</time>
      </trkpt>
      <trkpt lat="43.60503" lon="5.07067">
        <ele>56.6</ele>
        <time>2020-05-18T11:46:12Z</time>
      </trkpt>
      <trkpt lat="43.60501" lon="5.0706">
        <ele>56.4</ele>
        <time>2020-05-18T11:46:16Z</time>
      </trkpt>
      <trkpt lat="43.60491" lon="5.07038">
        <ele>56.2</ele>
        <time>2020-05-18T11:46:42Z</time>
      </trkpt>
      <trkpt lat="43.60461" lon="5.07">
        <ele>56.4</ele>
        <time>2020-05-18T11:47:13Z</time>
      </trkpt>
      <trkpt lat="43.60427" lon="5.07019">
        <ele>57.9</ele>
        <time>2020-05-18T11:47:46Z</time>
      </trkpt>
      <trkpt lat="43.6042" lon="5.07036">
        <ele>58.3</ele>
        <time>2020-05-18T11:48:31Z</time>
      </trkpt>
      <trkpt lat="43.60388" lon="5.07051">
        <ele>59.4</ele>
        <time>2020-05-18T11:49:02Z</time>
      </trkpt>
      <trkpt lat="43.60371" lon="5.07004">
        <ele>59.7</ele>
        <time>2020-05-18T11:49:33Z</time>
      </trkpt>
      <trkpt lat="43.60352" lon="5.06948">
        <ele>60.2</ele>
        <time>2020-05-18T11:50:10Z</time>
      </trkpt>
      <trkpt lat="43.60337" lon="5.06902">
        <ele>60.7</ele>
        <time>2020-05-18T11:50:41Z</time>
      </trkpt>
      <trkpt lat="43.60318" lon="5.0685">
        <ele>61.1</ele>
        <time>2020-05-18T11:51:15Z</time>
      </trkpt>
      <trkpt lat="43.60296" lon="5.06822">
        <ele>62.3</ele>
        <time>2020-05-18T11:51:44Z</time>
      </trkpt>
      <trkpt lat="43.6026" lon="5.06814">
        <ele>64.5</ele>
        <time>2020-05-18T11:52:16Z</time>
      </trkpt>
      <trkpt lat="43.60217" lon="5.06808">
        <ele>64.4</ele>
        <time>2020-05-18T11:52:53Z</time>
      </trkpt>
      <trkpt lat="43.60178" lon="5.06829">
        <ele>63.4</ele>
        <time>2020-05-18T11:53:28Z</time>
      </trkpt>
      <trkpt lat="43.60139" lon="5.06827">
        <ele>62.8</ele>
        <time>2020-05-18T11:54:00Z</time>
      </trkpt>
      <trkpt lat="43.601" lon="5.06832">
        <ele>62.2</ele>
        <time>2020-05-18T11:54:34Z</time>
      </trkpt>
      <trkpt lat="43.60062" lon="5.06826">
        <ele>61.4</ele>
        <time>2020-05-18T11:55:07Z</time>
      </trkpt>
      <trkpt lat="43.60023" lon="5.06809">
        <ele>60.2</ele>
        <time>2020-05-18T11:55:41Z</time>
      </trkpt>
      <trkpt lat="43.59997" lon="5.068">
        <ele>59.4</ele>
        <time>2020-05-18T11:56:12Z</time>
      </trkpt>
      <trkpt lat="43.59974" lon="5.06792">
        <ele>59.8</ele>
        <time>2020-05-18T11:56:41Z</time>
      </trkpt>
      <trkpt lat="43.59944" lon="5.06793">
        <ele>60.2</ele>
        <time>2020-05-18T11:57:08Z</time>
      </trkpt>
      <trkpt lat="43.59912" lon="5.06784">
        <ele>60.7</ele>
        <time>2020-05-18T11:57:40Z</time>
      </trkpt>
      <trkpt lat="43.59874" lon="5.0678">
        <ele>61.1</ele>
        <time>2020-05-18T11:58:13Z</time>
      </trkpt>
      <trkpt lat="43.59835" lon="5.06787">
        <ele>61.5</ele>
        <time>2020-05-18T11:58:48Z</time>
      </trkpt>
      <trkpt lat="43.59798" lon="5.06802">
        <ele>62</ele>
        <time>2020-05-18T11:59:20Z</time>
      </trkpt>
      <trkpt lat="43.59765" lon="5.06802">
        <ele>62.5</ele>
        <time>2020-05-18T11:59:49Z</time>
      </trkpt>
      <trkpt lat="43.59755" lon="5.06805">
        <ele>62.6</ele>
        <time>2020-05-18T12:00:13Z</time>
      </trkpt>
      <trkpt lat="43.59737" lon="5.06808">
        <ele>63</ele>
        <time>2020-05-18T12:00:40Z</time>
      </trkpt>
      <trkpt lat="43.59703" lon="5.06822">
        <ele>63.5</ele>
        <time>2020-05-18T12:01:12Z</time>
      </trkpt>
      <trkpt lat="43.59655" lon="5.06837">
        <ele>64.4</ele>
        <time>2020-05-18T12:01:56Z</time>
      </trkpt>
      <trkpt lat="43.59615" lon="5.06842">
        <ele>65.3</ele>
        <time>2020-05-18T12:02:32Z</time>
      </trkpt>
      <trkpt lat="43.59583" lon="5.0684">
        <ele>66</ele>
        <time>2020-05-18T12:03:06Z</time>
      </trkpt>
      <trkpt lat="43.59541" lon="5.06833">
        <ele>67</ele>
        <time>2020-05-18T12:03:39Z</time>
      </trkpt>
      <trkpt lat="43.595" lon="5.06825">
        <ele>68.6</ele>
        <time>2020-05-18T12:04:15Z</time>
      </trkpt>
      <trkpt lat="43.59463" lon="5.06826">
        <ele>69.3</ele>
        <time>2020-05-18T12:04:48Z</time>
      </trkpt>
      <trkpt lat="43.59423" lon="5.0682">
        <ele>70.2</ele>
        <time>2020-05-18T12:05:23Z</time>
      </trkpt>
      <trkpt lat="43.59385" lon="5.06815">
        <ele>71</ele>
        <time>2020-05-18T12:05:54Z</time>
      </trkpt>
      <trkpt lat="43.59351" lon="5.06833">
        <ele>71.6</ele>
        <time>2020-05-18T12:06:26Z</time>
      </trkpt>
      <trkpt lat="43.59317" lon="5.06856">
        <ele>73</ele>
        <time>2020-05-18T12:07:01Z</time>
      </trkpt>
      <trkpt lat="43.59279" lon="5.06867">
        <ele>74.4</ele>
        <time>2020-05-18T12:07:34Z</time>
      </trkpt>
      <trkpt lat="43.59237" lon="5.06865">
        <ele>75.2</ele>
        <time>2020-05-18T12:08:08Z</time>
      </trkpt>
      <trkpt lat="43.59221" lon="5.06863">
        <ele>75.2</ele>
        <time>2020-05-18T12:08:42Z</time>
      </trkpt>
      <trkpt lat="43.5921" lon="5.06856">
        <ele>75</ele>
        <time>2020-05-18T12:08:55Z</time>
      </trkpt>
      <trkpt lat="43.59207" lon="5.06846">
        <ele>74.5</ele>
        <time>2020-05-18T12:09:24Z</time>
      </trkpt>
      <trkpt lat="43.59213" lon="5.06853">
        <ele>74.8</ele>
        <time>2020-05-18T12:09:56Z</time>
      </trkpt>
      <trkpt lat="43.59209" lon="5.06853">
        <ele>74.8</ele>
        <time>2020-05-18T12:10:40Z</time>
      </trkpt>
      <trkpt lat="43.59207" lon="5.0685">
        <ele>74.7</ele>
        <time>2020-05-18T12:11:18Z</time>
      </trkpt>
      <trkpt lat="43.59206" lon="5.0685">
        <ele>74.7</ele>
        <time>2020-05-18T12:11:20Z</time>
      </trkpt>
      <trkpt lat="43.59204" lon="5.06844">
        <ele>74.5</ele>
        <time>2020-05-18T12:11:42Z</time>
      </trkpt>
      <trkpt lat="43.59205" lon="5.06846">
        <ele>74.5</ele>
        <time>2020-05-18T12:12:24Z</time>
      </trkpt>
      <trkpt lat="43.59199" lon="5.06861">
        <ele>75.2</ele>
        <time>2020-05-18T12:12:39Z</time>
      </trkpt>
      <trkpt lat="43.59196" lon="5.0689">
        <ele>76.5</ele>
        <time>2020-05-18T12:13:00Z</time>
      </trkpt>
      <trkpt lat="43.59165" lon="5.06899">
        <ele>77</ele>
        <time>2020-05-18T12:13:29Z</time>
      </trkpt>
      <trkpt lat="43.59125" lon="5.06924">
        <ele>74</ele>
        <time>2020-05-18T12:14:06Z</time>
      </trkpt>
      <trkpt lat="43.59099" lon="5.06951">
        <ele>72</ele>
        <time>2020-05-18T12:14:37Z</time>
      </trkpt>
      <trkpt lat="43.59097" lon="5.07">
        <ele>72.6</ele>
        <time>2020-05-18T12:15:09Z</time>
      </trkpt>
      <trkpt lat="43.59072" lon="5.07016">
        <ele>71.5</ele>
        <time>2020-05-18T12:15:34Z</time>
      </trkpt>
      <trkpt lat="43.59031" lon="5.0703">
        <ele>71.4</ele>
        <time>2020-05-18T12:16:07Z</time>
      </trkpt>
      <trkpt lat="43.58996" lon="5.07057">
        <ele>71.5</ele>
        <time>2020-05-18T12:16:43Z</time>
      </trkpt>
      <trkpt lat="43.58967" lon="5.07089">
        <ele>72.9</ele>
        <time>2020-05-18T12:17:13Z</time>
      </trkpt>
      <trkpt lat="43.58936" lon="5.07079">
        <ele>74.7</ele>
        <time>2020-05-18T12:17:40Z</time>
      </trkpt>
      <trkpt lat="43.58887" lon="5.0706">
        <ele>75.6</ele>
        <time>2020-05-18T12:18:22Z</time>
      </trkpt>
      <trkpt lat="43.5885" lon="5.07039">
        <ele>76.4</ele>
        <time>2020-05-18T12:18:55Z</time>
      </trkpt>
      <trkpt lat="43.5882" lon="5.07004">
        <ele>77.3</ele>
        <time>2020-05-18T12:19:28Z</time>
      </trkpt>
      <trkpt lat="43.58788" lon="5.07004">
        <ele>78</ele>
        <time>2020-05-18T12:19:59Z</time>
      </trkpt>
      <trkpt lat="43.58753" lon="5.07012">
        <ele>78.5</ele>
        <time>2020-05-18T12:20:29Z</time>
      </trkpt>
      <trkpt lat="43.58719" lon="5.07031">
        <ele>78.3</ele>
        <time>2020-05-18T12:21:00Z</time>
      </trkpt>
      <trkpt lat="43.58681" lon="5.07028">
        <ele>78.8</ele>
        <time>2020-05-18T12:21:32Z</time>
      </trkpt>
      <trkpt lat="43.58648" lon="5.07011">
        <ele>79</ele>
        <time>2020-05-18T12:22:02Z</time>
      </trkpt>
      <trkpt lat="43.58612" lon="5.06973">
        <ele>79.2</ele>
        <time>2020-05-18T12:22:41Z</time>
      </trkpt>
      <trkpt lat="43.58584" lon="5.06948">
        <ele>78.4</ele>
        <time>2020-05-18T12:23:11Z</time>
      </trkpt>
      <trkpt lat="43.5855" lon="5.06923">
        <ele>78.1</ele>
        <time>2020-05-18T12:23:45Z</time>
      </trkpt>
      <trkpt lat="43.58515" lon="5.06915">
        <ele>78</ele>
        <time>2020-05-18T12:24:15Z</time>
      </trkpt>
      <trkpt lat="43.58476" lon="5.06915">
        <ele>77.4</ele>
        <time>2020-05-18T12:24:47Z</time>
      </trkpt>
      <trkpt lat="43.58433" lon="5.0691">
        <ele>76.3</ele>
        <time>2020-05-18T12:25:22Z</time>
      </trkpt>
      <trkpt lat="43.58427" lon="5.06911">
        <ele>76.1</ele>
        <time>2020-05-18T12:25:30Z</time>
      </trkpt>
      <trkpt lat="43.58423" lon="5.06911">
        <ele>76</ele>
        <time>2020-05-18T12:25:34Z</time>
      </trkpt>
      <trkpt lat="43.58375" lon="5.06897">
        <ele>76.3</ele>
        <time>2020-05-18T12:26:15Z</time>
      </trkpt>
      <trkpt lat="43.58358" lon="5.06892">
        <ele>76.4</ele>
        <time>2020-05-18T12:26:44Z</time>
      </trkpt>
      <trkpt lat="43.58357" lon="5.06892">
        <ele>76.4</ele>
        <time>2020-05-18T12:26:57Z</time>
      </trkpt>
      <trkpt lat="43.58356" lon="5.06901">
        <ele>76.8</ele>
        <time>2020-05-18T12:27:19Z</time>
      </trkpt>
      <trkpt lat="43.58355" lon="5.069">
        <ele>76.8</ele>
        <time>2020-05-18T12:29:12Z</time>
      </trkpt>
      <trkpt lat="43.58357" lon="5.06902">
        <ele>76.8</ele>
        <time>2020-05-18T12:29:50Z</time>
      </trkpt>
      <trkpt lat="43.58356" lon="5.06905">
        <ele>77</ele>
        <time>2020-05-18T12:33:49Z</time>
      </trkpt>
      <trkpt lat="43.58344" lon="5.06896">
        <ele>76.8</ele>
        <time>2020-05-18T12:35:27Z</time>
      </trkpt>
      <trkpt lat="43.58331" lon="5.06886">
        <ele>76.5</ele>
        <time>2020-05-18T12:35:52Z</time>
      </trkpt>
      <trkpt lat="43.58294" lon="5.06882">
        <ele>76.3</ele>
        <time>2020-05-18T12:36:27Z</time>
      </trkpt>
      <trkpt lat="43.58276" lon="5.06887">
        <ele>76.6</ele>
        <time>2020-05-18T12:36:56Z</time>
      </trkpt>
      <trkpt lat="43.58245" lon="5.06903">
        <ele>77.3</ele>
        <time>2020-05-18T12:37:25Z</time>
      </trkpt>
      <trkpt lat="43.5823" lon="5.06912">
        <ele>77.5</ele>
        <time>2020-05-18T12:37:52Z</time>
      </trkpt>
      <trkpt lat="43.58189" lon="5.0692">
        <ele>77.4</ele>
        <time>2020-05-18T12:38:26Z</time>
      </trkpt>
      <trkpt lat="43.58153" lon="5.06939">
        <ele>77.5</ele>
        <time>2020-05-18T12:38:59Z</time>
      </trkpt>
      <trkpt lat="43.58117" lon="5.06969">
        <ele>77.7</ele>
        <time>2020-05-18T12:39:38Z</time>
      </trkpt>
      <trkpt lat="43.58083" lon="5.06979">
        <ele>77.3</ele>
        <time>2020-05-18T12:40:12Z</time>
      </trkpt>
      <trkpt lat="43.58067" lon="5.06984">
        <ele>76.5</ele>
        <time>2020-05-18T12:40:39Z</time>
      </trkpt>
      <trkpt lat="43.58032" lon="5.06998">
        <ele>74.9</ele>
        <time>2020-05-18T12:41:10Z</time>
      </trkpt>
      <trkpt lat="43.58001" lon="5.07019">
        <ele>73.7</ele>
        <time>2020-05-18T12:41:41Z</time>
      </trkpt>
      <trkpt lat="43.57993" lon="5.07073">
        <ele>75.7</ele>
        <time>2020-05-18T12:42:13Z</time>
      </trkpt>
      <trkpt lat="43.57991" lon="5.07118">
        <ele>76.8</ele>
        <time>2020-05-18T12:42:44Z</time>
      </trkpt>
      <trkpt lat="43.57981" lon="5.07169">
        <ele>77.7</ele>
        <time>2020-05-18T12:43:20Z</time>
      </trkpt>
      <trkpt lat="43.57977" lon="5.07212">
        <ele>76.5</ele>
        <time>2020-05-18T12:43:48Z</time>
      </trkpt>
      <trkpt lat="43.57988" lon="5.07261">
        <ele>75.4</ele>
        <time>2020-05-18T12:44:23Z</time>
      </trkpt>
      <trkpt lat="43.58012" lon="5.07297">
        <ele>75.5</ele>
        <time>2020-05-18T12:44:55Z</time>
      </trkpt>
      <trkpt lat="43.58023" lon="5.073">
        <ele>76.1</ele>
        <time>2020-05-18T12:45:21Z</time>
      </trkpt>
      <trkpt lat="43.5805" lon="5.07296">
        <ele>77.8</ele>
        <time>2020-05-18T12:45:51Z</time>
      </trkpt>
      <trkpt lat="43.5809" lon="5.07303">
        <ele>79.1</ele>
        <time>2020-05-18T12:46:25Z</time>
      </trkpt>
      <trkpt lat="43.58133" lon="5.07302">
        <ele>78.6</ele>
        <time>2020-05-18T12:47:03Z</time>
      </trkpt>
      <trkpt lat="43.58158" lon="5.07323">
        <ele>75.6</ele>
        <time>2020-05-18T12:47:29Z</time>
      </trkpt>
      <trkpt lat="43.58183" lon="5.07372">
        <ele>73.4</ele>
        <time>2020-05-18T12:48:05Z</time>
      </trkpt>
      <trkpt lat="43.58207" lon="5.07423">
        <ele>74.2</ele>
        <time>2020-05-18T12:48:43Z</time>
      </trkpt>
      <trkpt lat="43.58206" lon="5.0747">
        <ele>75.8</ele>
        <time>2020-05-18T12:49:14Z</time>
      </trkpt>
      <trkpt lat="43.58201" lon="5.07519">
        <ele>76</ele>
        <time>2020-05-18T12:49:50Z</time>
      </trkpt>
      <trkpt lat="43.58225" lon="5.07563">
        <ele>74.9</ele>
        <time>2020-05-18T12:50:27Z</time>
      </trkpt>
      <trkpt lat="43.58264" lon="5.07565">
        <ele>75.1</ele>
        <time>2020-05-18T12:51:02Z</time>
      </trkpt>
      <trkpt lat="43.58302" lon="5.07573">
        <ele>74.3</ele>
        <time>2020-05-18T12:51:34Z</time>
      </trkpt>
      <trkpt lat="43.58344" lon="5.07592">
        <ele>72.2</ele>
        <time>2020-05-18T12:52:12Z</time>
      </trkpt>
      <trkpt lat="43.5837" lon="5.07617">
        <ele>70.4</ele>
        <time>2020-05-18T12:52:43Z</time>
      </trkpt>
      <trkpt lat="43.58384" lon="5.07656">
        <ele>68.9</ele>
        <time>2020-05-18T12:53:14Z</time>
      </trkpt>
      <trkpt lat="43.58395" lon="5.07708">
        <ele>68.2</ele>
        <time>2020-05-18T12:53:47Z</time>
      </trkpt>
      <trkpt lat="43.58393" lon="5.07753">
        <ele>67.7</ele>
        <time>2020-05-18T12:54:18Z</time>
      </trkpt>
      <trkpt lat="43.584" lon="5.07799">
        <ele>68</ele>
        <time>2020-05-18T12:54:50Z</time>
      </trkpt>
      <trkpt lat="43.58418" lon="5.07845">
        <ele>67.7</ele>
        <time>2020-05-18T12:55:27Z</time>
      </trkpt>
      <trkpt lat="43.58447" lon="5.07854">
        <ele>66.7</ele>
        <time>2020-05-18T12:55:57Z</time>
      </trkpt>
      <trkpt lat="43.58492" lon="5.07843">
        <ele>65.9</ele>
        <time>2020-05-18T12:56:38Z</time>
      </trkpt>
      <trkpt lat="43.58527" lon="5.07835">
        <ele>65.6</ele>
        <time>2020-05-18T12:57:10Z</time>
      </trkpt>
      <trkpt lat="43.58563" lon="5.07838">
        <ele>65.1</ele>
        <time>2020-05-18T12:57:39Z</time>
      </trkpt>
      <trkpt lat="43.58587" lon="5.07872">
        <ele>63.9</ele>
        <time>2020-05-18T12:58:10Z</time>
      </trkpt>
      <trkpt lat="43.58592" lon="5.07882">
        <ele>63.5</ele>
        <time>2020-05-18T12:58:19Z</time>
      </trkpt>
      <trkpt lat="43.58625" lon="5.0789">
        <ele>62.1</ele>
        <time>2020-05-18T12:58:50Z</time>
      </trkpt>
      <trkpt lat="43.58633" lon="5.07937">
        <ele>61.2</ele>
        <time>2020-05-18T12:59:20Z</time>
      </trkpt>
      <trkpt lat="43.5864" lon="5.07988">
        <ele>60.9</ele>
        <time>2020-05-18T12:59:55Z</time>
      </trkpt>
      <trkpt lat="43.58647" lon="5.08013">
        <ele>61</ele>
        <time>2020-05-18T13:00:15Z</time>
      </trkpt>
      <trkpt lat="43.5867" lon="5.08049">
        <ele>61.1</ele>
        <time>2020-05-18T13:00:44Z</time>
      </trkpt>
      <trkpt lat="43.58682" lon="5.08104">
        <ele>62</ele>
        <time>2020-05-18T13:01:21Z</time>
      </trkpt>
      <trkpt lat="43.58675" lon="5.08142">
        <ele>62.6</ele>
        <time>2020-05-18T13:01:49Z</time>
      </trkpt>
      <trkpt lat="43.5867" lon="5.08177">
        <ele>63.2</ele>
        <time>2020-05-18T13:02:15Z</time>
      </trkpt>
      <trkpt lat="43.58675" lon="5.08186">
        <ele>63.5</ele>
        <time>2020-05-18T13:02:23Z</time>
      </trkpt>
      <trkpt lat="43.58682" lon="5.08233">
        <ele>64.6</ele>
        <time>2020-05-18T13:02:59Z</time>
      </trkpt>
      <trkpt lat="43.58685" lon="5.08238">
        <ele>64.7</ele>
        <time>2020-05-18T13:03:05Z</time>
      </trkpt>
      <trkpt lat="43.58716" lon="5.08233">
        <ele>64.6</ele>
        <time>2020-05-18T13:03:36Z</time>
      </trkpt>
      <trkpt lat="43.58738" lon="5.0824">
        <ele>64.8</ele>
        <time>2020-05-18T13:03:57Z</time>
      </trkpt>
      <trkpt lat="43.58755" lon="5.08292">
        <ele>65.9</ele>
        <time>2020-05-18T13:04:30Z</time>
      </trkpt>
      <trkpt lat="43.5876" lon="5.08312">
        <ele>66.4</ele>
        <time>2020-05-18T13:05:00Z</time>
      </trkpt>
      <trkpt lat="43.58763" lon="5.08344">
        <ele>67</ele>
        <time>2020-05-18T13:05:23Z</time>
      </trkpt>
      <trkpt lat="43.58776" lon="5.08386">
        <ele>67.3</ele>
        <time>2020-05-18T13:05:52Z</time>
      </trkpt>
      <trkpt lat="43.58772" lon="5.08442">
        <ele>67.1</ele>
        <time>2020-05-18T13:06:27Z</time>
      </trkpt>
      <trkpt lat="43.58782" lon="5.08461">
        <ele>66.6</ele>
        <time>2020-05-18T13:06:44Z</time>
      </trkpt>
      <trkpt lat="43.58785" lon="5.08474">
        <ele>66.4</ele>
        <time>2020-05-18T13:06:52Z</time>
      </trkpt>
      <trkpt lat="43.58788" lon="5.0849">
        <ele>66.1</ele>
        <time>2020-05-18T13:07:06Z</time>
      </trkpt>
      <trkpt lat="43.58795" lon="5.08491">
        <ele>66.2</ele>
        <time>2020-05-18T13:07:12Z</time>
      </trkpt>
      <trkpt lat="43.58835" lon="5.0849">
        <ele>67</ele>
        <time>2020-05-18T13:07:46Z</time>
      </trkpt>
      <trkpt lat="43.58877" lon="5.08469">
        <ele>67.5</ele>
        <time>2020-05-18T13:08:24Z</time>
      </trkpt>
      <trkpt lat="43.58918" lon="5.0846">
        <ele>67.5</ele>
        <time>2020-05-18T13:08:57Z</time>
      </trkpt>
      <trkpt lat="43.58926" lon="5.08459">
        <ele>67.4</ele>
        <time>2020-05-18T13:09:05Z</time>
      </trkpt>
      <trkpt lat="43.58931" lon="5.08463">
        <ele>67.5</ele>
        <time>2020-05-18T13:09:09Z</time>
      </trkpt>
      <trkpt lat="43.58942" lon="5.08499">
        <ele>68.9</ele>
        <time>2020-05-18T13:09:34Z</time>
      </trkpt>
      <trkpt lat="43.58953" lon="5.08546">
        <ele>71.8</ele>
        <time>2020-05-18T13:10:09Z</time>
      </trkpt>
      <trkpt lat="43.58963" lon="5.08582">
        <ele>74.8</ele>
        <time>2020-05-18T13:10:35Z</time>
      </trkpt>
      <trkpt lat="43.58976" lon="5.08611">
        <ele>77.3</ele>
        <time>2020-05-18T13:11:05Z</time>
      </trkpt>
      <trkpt lat="43.59008" lon="5.08599">
        <ele>79.2</ele>
        <time>2020-05-18T13:11:37Z</time>
      </trkpt>
      <trkpt lat="43.59046" lon="5.08598">
        <ele>81.2</ele>
        <time>2020-05-18T13:12:15Z</time>
      </trkpt>
      <trkpt lat="43.59048" lon="5.08626">
        <ele>82.1</ele>
        <time>2020-05-18T13:12:42Z</time>
      </trkpt>
      <trkpt lat="43.5905" lon="5.08634">
        <ele>82.3</ele>
        <time>2020-05-18T13:13:19Z</time>
      </trkpt>
      <trkpt lat="43.5905" lon="5.08636">
        <ele>82.4</ele>
        <time>2020-05-18T13:17:29Z</time>
      </trkpt>
      <trkpt lat="43.59053" lon="5.08633">
        <ele>82.4</ele>
        <time>2020-05-18T13:21:11Z</time>
      </trkpt>
      <trkpt lat="43.59063" lon="5.08662">
        <ele>83.4</ele>
        <time>2020-05-18T13:21:41Z</time>
      </trkpt>
      <trkpt lat="43.59066" lon="5.08663">
        <ele>83.5</ele>
        <time>2020-05-18T13:21:44Z</time>
      </trkpt>
      <trkpt lat="43.59079" lon="5.08673">
        <ele>83</ele>
        <time>2020-05-18T13:22:15Z</time>
      </trkpt>
      <trkpt lat="43.59086" lon="5.08675">
        <ele>82.9</ele>
        <time>2020-05-18T13:22:40Z</time>
      </trkpt>
      <trkpt lat="43.59119" lon="5.08692">
        <ele>80.8</ele>
        <time>2020-05-18T13:23:11Z</time>
      </trkpt>
      <trkpt lat="43.59133" lon="5.08698">
        <ele>80.2</ele>
        <time>2020-05-18T13:23:37Z</time>
      </trkpt>
      <trkpt lat="43.59158" lon="5.08699">
        <ele>80.4</ele>
        <time>2020-05-18T13:24:09Z</time>
      </trkpt>
      <trkpt lat="43.59172" lon="5.08698">
        <ele>80.6</ele>
        <time>2020-05-18T13:24:38Z</time>
      </trkpt>
      <trkpt lat="43.59205" lon="5.087">
        <ele>80.3</ele>
        <time>2020-05-18T13:25:14Z</time>
      </trkpt>
      <trkpt lat="43.59208" lon="5.08703">
        <ele>80</ele>
        <time>2020-05-18T13:25:18Z</time>
      </trkpt>
      <trkpt lat="43.59229" lon="5.08716">
        <ele>78.8</ele>
        <time>2020-05-18T13:25:45Z</time>
      </trkpt>
      <trkpt lat="43.59229" lon="5.08716">
        <ele>78.8</ele>
        <time>2020-05-18T13:25:46Z</time>
      </trkpt>
      <trkpt lat="43.5926" lon="5.08721">
        <ele>78.5</ele>
        <time>2020-05-18T13:26:14Z</time>
      </trkpt>
      <trkpt lat="43.59294" lon="5.08736">
        <ele>77.6</ele>
        <time>2020-05-18T13:26:48Z</time>
      </trkpt>
      <trkpt lat="43.59313" lon="5.0874">
        <ele>77.5</ele>
        <time>2020-05-18T13:27:16Z</time>
      </trkpt>
      <trkpt lat="43.59313" lon="5.08756">
        <ele>76</ele>
        <time>2020-05-18T13:27:38Z</time>
      </trkpt>
      <trkpt lat="43.59304" lon="5.08767">
        <ele>74.4</ele>
        <time>2020-05-18T13:27:53Z</time>
      </trkpt>
      <trkpt lat="43.59299" lon="5.08768">
        <ele>74.2</ele>
        <time>2020-05-18T13:27:58Z</time>
      </trkpt>
      <trkpt lat="43.59271" lon="5.08768">
        <ele>73.7</ele>
        <time>2020-05-18T13:28:29Z</time>
      </trkpt>
      <trkpt lat="43.5924" lon="5.08769">
        <ele>73.2</ele>
        <time>2020-05-18T13:28:56Z</time>
      </trkpt>
      <trkpt lat="43.59234" lon="5.08767">
        <ele>73.4</ele>
        <time>2020-05-18T13:29:04Z</time>
      </trkpt>
      <trkpt lat="43.59203" lon="5.08781">
        <ele>70.7</ele>
        <time>2020-05-18T13:29:38Z</time>
      </trkpt>
      <trkpt lat="43.59207" lon="5.08793">
        <ele>69.1</ele>
        <time>2020-05-18T13:29:50Z</time>
      </trkpt>
      <trkpt lat="43.59241" lon="5.08801">
        <ele>68.5</ele>
        <time>2020-05-18T13:30:23Z</time>
      </trkpt>
      <trkpt lat="43.59275" lon="5.08823">
        <ele>66.3</ele>
        <time>2020-05-18T13:30:58Z</time>
      </trkpt>
      <trkpt lat="43.59304" lon="5.08837">
        <ele>65.6</ele>
        <time>2020-05-18T13:31:27Z</time>
      </trkpt>
      <trkpt lat="43.59338" lon="5.08855">
        <ele>65.1</ele>
        <time>2020-05-18T13:31:58Z</time>
      </trkpt>
      <trkpt lat="43.59372" lon="5.08868">
        <ele>65</ele>
        <time>2020-05-18T13:32:31Z</time>
      </trkpt>
      <trkpt lat="43.59411" lon="5.08889">
        <ele>63.6</ele>
        <time>2020-05-18T13:33:06Z</time>
      </trkpt>
      <trkpt lat="43.59448" lon="5.0891">
        <ele>62.4</ele>
        <time>2020-05-18T13:33:38Z</time>
      </trkpt>
      <trkpt lat="43.59483" lon="5.08929">
        <ele>62.3</ele>
        <time>2020-05-18T13:34:10Z</time>
      </trkpt>
      <trkpt lat="43.59522" lon="5.08946">
        <ele>61.3</ele>
        <time>2020-05-18T13:34:45Z</time>
      </trkpt>
      <trkpt lat="43.59557" lon="5.08937">
        <ele>60.8</ele>
        <time>2020-05-18T13:35:17Z</time>
      </trkpt>
      <trkpt lat="43.59591" lon="5.08922">
        <ele>60.7</ele>
        <time>2020-05-18T13:35:49Z</time>
      </trkpt>
      <trkpt lat="43.59627" lon="5.08924">
        <ele>60.2</ele>
        <time>2020-05-18T13:36:25Z</time>
      </trkpt>
      <trkpt lat="43.59641" lon="5.0893">
        <ele>59.9</ele>
        <time>2020-05-18T13:36:39Z</time>
      </trkpt>
      <trkpt lat="43.59677" lon="5.08936">
        <ele>59.5</ele>
        <time>2020-05-18T13:37:08Z</time>
      </trkpt>
      <trkpt lat="43.59709" lon="5.08969">
        <ele>58.8</ele>
        <time>2020-05-18T13:37:40Z</time>
      </trkpt>
      <trkpt lat="43.59713" lon="5.08994">
        <ele>58.1</ele>
        <time>2020-05-18T13:38:04Z</time>
      </trkpt>
      <trkpt lat="43.59714" lon="5.09">
        <ele>58</ele>
        <time>2020-05-18T13:38:22Z</time>
      </trkpt>
      <trkpt lat="43.59718" lon="5.09017">
        <ele>57.7</ele>
        <time>2020-05-18T13:38:49Z</time>
      </trkpt>
      <trkpt lat="43.59717" lon="5.0901">
        <ele>57.8</ele>
        <time>2020-05-18T13:39:14Z</time>
      </trkpt>
      <trkpt lat="43.59709" lon="5.09009">
        <ele>57.8</ele>
        <time>2020-05-18T13:39:32Z</time>
      </trkpt>
      <trkpt lat="43.59708" lon="5.09019">
        <ele>57.7</ele>
        <time>2020-05-18T13:40:04Z</time>
      </trkpt>
      <trkpt lat="43.59709" lon="5.0901">
        <ele>57.8</ele>
        <time>2020-05-18T13:40:31Z</time>
      </trkpt>
      <trkpt lat="43.5971" lon="5.08985">
        <ele>58.4</ele>
        <time>2020-05-18T13:40:57Z</time>
      </trkpt>
      <trkpt lat="43.5971" lon="5.08938">
        <ele>59.5</ele>
        <time>2020-05-18T13:41:29Z</time>
      </trkpt>
      <trkpt lat="43.59714" lon="5.0893">
        <ele>59.7</ele>
        <time>2020-05-18T13:42:04Z</time>
      </trkpt>
      <trkpt lat="43.59732" lon="5.08912">
        <ele>60.1</ele>
        <time>2020-05-18T13:42:34Z</time>
      </trkpt>
      <trkpt lat="43.59738" lon="5.08897">
        <ele>60.6</ele>
        <time>2020-05-18T13:42:46Z</time>
      </trkpt>
      <trkpt lat="43.5975" lon="5.08867">
        <ele>61.2</ele>
        <time>2020-05-18T13:43:17Z</time>
      </trkpt>
      <trkpt lat="43.59751" lon="5.08848">
        <ele>61.6</ele>
        <time>2020-05-18T13:43:35Z</time>
      </trkpt>
      <trkpt lat="43.59768" lon="5.08801">
        <ele>62</ele>
        <time>2020-05-18T13:44:09Z</time>
      </trkpt>
      <trkpt lat="43.5977" lon="5.08738">
        <ele>63.3</ele>
        <time>2020-05-18T13:44:46Z</time>
      </trkpt>
      <trkpt lat="43.59772" lon="5.08683">
        <ele>64.3</ele>
        <time>2020-05-18T13:45:19Z</time>
      </trkpt>
      <trkpt lat="43.59772" lon="5.08624">
        <ele>65.4</ele>
        <time>2020-05-18T13:45:55Z</time>
      </trkpt>
      <trkpt lat="43.59772" lon="5.08564">
        <ele>66.1</ele>
        <time>2020-05-18T13:46:31Z</time>
      </trkpt>
      <trkpt lat="43.59769" lon="5.08526">
        <ele>66</ele>
        <time>2020-05-18T13:46:57Z</time>
      </trkpt>
      <trkpt lat="43.59763" lon="5.08476">
        <ele>65.5</ele>
        <time>2020-05-18T13:47:29Z</time>
      </trkpt>
      <trkpt lat="43.59754" lon="5.08415">
        <ele>63.9</ele>
        <time>2020-05-18T13:48:06Z</time>
      </trkpt>
      <trkpt lat="43.59763" lon="5.08402">
        <ele>63.5</ele>
        <time>2020-05-18T13:48:31Z</time>
      </trkpt>
      <trkpt lat="43.59766" lon="5.08403">
        <ele>63.5</ele>
        <time>2020-05-18T13:48:34Z</time>
      </trkpt>
      <trkpt lat="43.59782" lon="5.08372">
        <ele>62.9</ele>
        <time>2020-05-18T13:49:01Z</time>
      </trkpt>
      <trkpt lat="43.5978" lon="5.0831">
        <ele>62.3</ele>
        <time>2020-05-18T13:49:38Z</time>
      </trkpt>
      <trkpt lat="43.59773" lon="5.08253">
        <ele>61.5</ele>
        <time>2020-05-18T13:50:11Z</time>
      </trkpt>
      <trkpt lat="43.59763" lon="5.08198">
        <ele>61.8</ele>
        <time>2020-05-18T13:50:44Z</time>
      </trkpt>
      <trkpt lat="43.59761" lon="5.08164">
        <ele>61.8</ele>
        <time>2020-05-18T13:51:15Z</time>
      </trkpt>
      <trkpt lat="43.59761" lon="5.08161">
        <ele>61.8</ele>
        <time>2020-05-18T13:51:53Z</time>
      </trkpt>
      <trkpt lat="43.59763" lon="5.08148">
        <ele>61.7</ele>
        <time>2020-05-18T13:52:37Z</time>
      </trkpt>
      <trkpt lat="43.59759" lon="5.081">
        <ele>61.2</ele>
        <time>2020-05-18T13:53:06Z</time>
      </trkpt>
      <trkpt lat="43.5975" lon="5.08048">
        <ele>61</ele>
        <time>2020-05-18T13:53:39Z</time>
      </trkpt>
      <trkpt lat="43.59745" lon="5.07992">
        <ele>61.1</ele>
        <time>2020-05-18T13:54:14Z</time>
      </trkpt>
      <trkpt lat="43.59736" lon="5.07938">
        <ele>61.3</ele>
        <time>2020-05-18T13:54:48Z</time>
      </trkpt>
      <trkpt lat="43.59735" lon="5.07913">
        <ele>61.4</ele>
        <time>2020-05-18T13:55:19Z</time>
      </trkpt>
      <trkpt lat="43.59727" lon="5.07869">
        <ele>61.4</ele>
        <time>2020-05-18T13:55:52Z</time>
      </trkpt>
      <trkpt lat="43.59718" lon="5.0783">
        <ele>61.4</ele>
        <time>2020-05-18T13:56:22Z</time>
      </trkpt>
      <trkpt lat="43.59717" lon="5.07791">
        <ele>61.2</ele>
        <time>2020-05-18T13:56:56Z</time>
      </trkpt>
      <trkpt lat="43.59718" lon="5.0779">
        <ele>61.2</ele>
        <time>2020-05-18T13:56:57Z</time>
      </trkpt>
      <trkpt lat="43.59738" lon="5.07757">
        <ele>61</ele>
        <time>2020-05-18T13:57:29Z</time>
      </trkpt>
      <trkpt lat="43.59732" lon="5.07714">
        <ele>61.3</ele>
        <time>2020-05-18T13:57:59Z</time>
      </trkpt>
      <trkpt lat="43.59759" lon="5.07679">
        <ele>61</ele>
        <time>2020-05-18T13:58:30Z</time>
      </trkpt>
      <trkpt lat="43.59774" lon="5.07628">
        <ele>59.9</ele>
        <time>2020-05-18T13:59:05Z</time>
      </trkpt>
      <trkpt lat="43.59789" lon="5.07567">
        <ele>58.4</ele>
        <time>2020-05-18T13:59:44Z</time>
      </trkpt>
      <trkpt lat="43.59818" lon="5.07536">
        <ele>58.4</ele>
        <time>2020-05-18T14:00:16Z</time>
      </trkpt>
      <trkpt lat="43.59836" lon="5.07511">
        <ele>58.8</ele>
        <time>2020-05-18T14:00:42Z</time>
      </trkpt>
      <trkpt lat="43.59826" lon="5.07469">
        <ele>58.5</ele>
        <time>2020-05-18T14:01:12Z</time>
      </trkpt>
      <trkpt lat="43.59846" lon="5.0744">
        <ele>58.4</ele>
        <time>2020-05-18T14:01:42Z</time>
      </trkpt>
      <trkpt lat="43.59879" lon="5.07412">
        <ele>59.2</ele>
        <time>2020-05-18T14:02:14Z</time>
      </trkpt>
      <trkpt lat="43.59909" lon="5.07383">
        <ele>61.3</ele>
        <time>2020-05-18T14:02:46Z</time>
      </trkpt>
      <trkpt lat="43.59909" lon="5.07376">
        <ele>61.6</ele>
        <time>2020-05-18T14:02:52Z</time>
      </trkpt>
      <trkpt lat="43.59907" lon="5.07321">
        <ele>63.3</ele>
        <time>2020-05-18T14:03:24Z</time>
      </trkpt>
      <trkpt lat="43.59927" lon="5.07267">
        <ele>63.2</ele>
        <time>2020-05-18T14:03:59Z</time>
      </trkpt>
      <trkpt lat="43.59945" lon="5.07219">
        <ele>63.1</ele>
        <time>2020-05-18T14:04:31Z</time>
      </trkpt>
      <trkpt lat="43.59959" lon="5.07163">
        <ele>63</ele>
        <time>2020-05-18T14:05:06Z</time>
      </trkpt>
      <trkpt lat="43.59988" lon="5.07114">
        <ele>63</ele>
        <time>2020-05-18T14:05:44Z</time>
      </trkpt>
      <trkpt lat="43.60025" lon="5.07089">
        <ele>63.4</ele>
        <time>2020-05-18T14:06:17Z</time>
      </trkpt>
      <trkpt lat="43.60066" lon="5.07083">
        <ele>63.8</ele>
        <time>2020-05-18T14:06:50Z</time>
      </trkpt>
      <trkpt lat="43.60111" lon="5.07081">
        <ele>64</ele>
        <time>2020-05-18T14:07:26Z</time>
      </trkpt>
      <trkpt lat="43.60152" lon="5.0707">
        <ele>63.9</ele>
        <time>2020-05-18T14:08:05Z</time>
      </trkpt>
      <trkpt lat="43.60152" lon="5.07023">
        <ele>63.8</ele>
        <time>2020-05-18T14:08:34Z</time>
      </trkpt>
      <trkpt lat="43.60151" lon="5.06968">
        <ele>63.3</ele>
        <time>2020-05-18T14:09:07Z</time>
      </trkpt>
      <trkpt lat="43.60148" lon="5.06904">
        <ele>62.8</ele>
        <time>2020-05-18T14:09:45Z</time>
      </trkpt>
      <trkpt lat="43.60145" lon="5.06856">
        <ele>62.7</ele>
        <time>2020-05-18T14:10:15Z</time>
      </trkpt>
      <trkpt lat="43.60179" lon="5.06826">
        <ele>63.4</ele>
        <time>2020-05-18T14:10:49Z</time>
      </trkpt>
      <trkpt lat="43.60222" lon="5.06805">
        <ele>64.6</ele>
        <time>2020-05-18T14:11:26Z</time>
      </trkpt>
      <trkpt lat="43.60262" lon="5.06811">
        <ele>64.3</ele>
        <time>2020-05-18T14:11:58Z</time>
      </trkpt>
      <trkpt lat="43.60298" lon="5.06822">
        <ele>62.2</ele>
        <time>2020-05-18T14:12:28Z</time>
      </trkpt>
      <trkpt lat="43.60314" lon="5.06837">
        <ele>61.2</ele>
        <time>2020-05-18T14:12:50Z</time>
      </trkpt>
      <trkpt lat="43.60333" lon="5.06889">
        <ele>60.7</ele>
        <time>2020-05-18T14:13:24Z</time>
      </trkpt>
      <trkpt lat="43.6035" lon="5.0694">
        <ele>60.3</ele>
        <time>2020-05-18T14:13:57Z</time>
      </trkpt>
      <trkpt lat="43.60365" lon="5.06989">
        <ele>59.8</ele>
        <time>2020-05-18T14:14:32Z</time>
      </trkpt>
      <trkpt lat="43.60378" lon="5.07026">
        <ele>59.6</ele>
        <time>2020-05-18T14:15:01Z</time>
      </trkpt>
      <trkpt lat="43.60397" lon="5.0706">
        <ele>59.2</ele>
        <time>2020-05-18T14:15:29Z</time>
      </trkpt>
      <trkpt lat="43.60423" lon="5.0703">
        <ele>58.2</ele>
        <time>2020-05-18T14:15:59Z</time>
      </trkpt>
      <trkpt lat="43.60461" lon="5.06999">
        <ele>56.4</ele>
        <time>2020-05-18T14:16:37Z</time>
      </trkpt>
      <trkpt lat="43.60497" lon="5.07039">
        <ele>56</ele>
        <time>2020-05-18T14:17:16Z</time>
      </trkpt>
      <trkpt lat="43.60517" lon="5.07074">
        <ele>56.6</ele>
        <time>2020-05-18T14:17:48Z</time>
      </trkpt>
      <trkpt lat="43.60532" lon="5.07086">
        <ele>56.7</ele>
        <time>2020-05-18T14:18:12Z</time>
      </trkpt>
      <trkpt lat="43.60541" lon="5.07094">
        <ele>56.7</ele>
        <time>2020-05-18T14:18:27Z</time>
      </trkpt>
      <trkpt lat="43.60537" lon="5.07107">
        <ele>57</ele>
        <time>2020-05-18T14:18:36Z</time>
      </trkpt>
      <trkpt lat="43.60511" lon="5.07109">
        <ele>57.4</ele>
        <time>2020-05-18T14:19:07Z</time>
      </trkpt>
      <trkpt lat="43.60512" lon="5.0711">
        <ele>57.5</ele>
        <time>2020-05-18T14:19:09Z</time>
      </trkpt>
      <trkpt lat="43.6051" lon="5.07113">
        <ele>57.6</ele>
        <time>2020-05-18T14:19:15Z</time>
      </trkpt>
      <trkpt lat="43.60501" lon="5.07112">
        <ele>57.7</ele>
        <time>2020-05-18T14:19:39Z</time>
      </trkpt>
      <trkpt lat="43.60503" lon="5.07111">
        <ele>57.6</ele>
        <time>2020-05-18T14:19:41Z</time>
      </trkpt>
      <trkpt lat="43.60513" lon="5.07113">
        <ele>57.5</ele>
        <time>2020-05-18T14:20:07Z</time>
      </trkpt>
      <trkpt lat="43.60532" lon="5.07111">
        <ele>57.1</ele>
        <time>2020-05-18T14:20:32Z</time>
      </trkpt>
      <trkpt lat="43.60554" lon="5.07102">
        <ele>56.7</ele>
        <time>2020-05-18T14:20:57Z</time>
      </trkpt>
      <trkpt lat="43.60583" lon="5.07086">
        <ele>56</ele>
        <time>2020-05-18T14:21:26Z</time>
      </trkpt>
      <trkpt lat="43.60615" lon="5.07076">
        <ele>55.4</ele>
        <time>2020-05-18T14:21:56Z</time>
      </trkpt>
      <trkpt lat="43.60654" lon="5.07089">
        <ele>55.3</ele>
        <time>2020-05-18T14:22:35Z</time>
      </trkpt>
      <trkpt lat="43.60686" lon="5.07061">
        <ele>55.3</ele>
        <time>2020-05-18T14:23:07Z</time>
      </trkpt>
      <trkpt lat="43.60702" lon="5.07028">
        <ele>55.7</ele>
        <time>2020-05-18T14:23:41Z</time>
      </trkpt>
      <trkpt lat="43.60705" lon="5.07024">
        <ele>55.9</ele>
        <time>2020-05-18T14:23:46Z</time>
      </trkpt>
      <trkpt lat="43.60737" lon="5.07002">
        <ele>57.4</ele>
        <time>2020-05-18T14:24:19Z</time>
      </trkpt>
      <trkpt lat="43.60749" lon="5.06994">
        <ele>58.1</ele>
        <time>2020-05-18T14:24:40Z</time>
      </trkpt>
      <trkpt lat="43.60738" lon="5.06951">
        <ele>58.5</ele>
        <time>2020-05-18T14:25:09Z</time>
      </trkpt>
      <trkpt lat="43.60725" lon="5.06918">
        <ele>58.5</ele>
        <time>2020-05-18T14:25:33Z</time>
      </trkpt>
      <trkpt lat="43.60725" lon="5.06909">
        <ele>58.4</ele>
        <time>2020-05-18T14:25:45Z</time>
      </trkpt>
      <trkpt lat="43.60723" lon="5.06865">
        <ele>58</ele>
        <time>2020-05-18T14:26:20Z</time>
      </trkpt>
      <trkpt lat="43.60737" lon="5.06825">
        <ele>58.1</ele>
        <time>2020-05-18T14:26:51Z</time>
      </trkpt>
      <trkpt lat="43.60768" lon="5.06803">
        <ele>57.6</ele>
        <time>2020-05-18T14:27:23Z</time>
      </trkpt>
      <trkpt lat="43.60795" lon="5.06777">
        <ele>56.6</ele>
        <time>2020-05-18T14:28:01Z</time>
      </trkpt>
      <trkpt lat="43.60811" lon="5.06751">
        <ele>56</ele>
        <time>2020-05-18T14:28:26Z</time>
      </trkpt>
      <trkpt lat="43.60827" lon="5.06726">
        <ele>56</ele>
        <time>2020-05-18T14:28:56Z</time>
      </trkpt>
      <trkpt lat="43.60844" lon="5.06721">
        <ele>55.9</ele>
        <time>2020-05-18T14:29:26Z</time>
      </trkpt>
      <trkpt lat="43.60846" lon="5.06721">
        <ele>55.9</ele>
        <time>2020-05-18T14:30:06Z</time>
      </trkpt>
      <trkpt lat="43.60851" lon="5.06722">
        <ele>55.9</ele>
        <time>2020-05-18T14:30:38Z</time>
      </trkpt>
      <trkpt lat="43.60867" lon="5.06719">
        <ele>55.7</ele>
        <time>2020-05-18T14:31:16Z</time>
      </trkpt>
      <trkpt lat="43.60883" lon="5.06678">
        <ele>55</ele>
        <time>2020-05-18T14:31:49Z</time>
      </trkpt>
      <trkpt lat="43.6089" lon="5.06667">
        <ele>54.6</ele>
        <time>2020-05-18T14:32:07Z</time>
      </trkpt>
      <trkpt lat="43.60894" lon="5.06664">
        <ele>54.6</ele>
        <time>2020-05-18T14:32:11Z</time>
      </trkpt>
      <trkpt lat="43.60899" lon="5.06665">
        <ele>54.5</ele>
        <time>2020-05-18T14:32:38Z</time>
      </trkpt>
      <trkpt lat="43.60899" lon="5.06665">
        <ele>54.5</ele>
        <time>2020-05-18T14:33:41Z</time>
      </trkpt>
    </trkseg>
  </trk>
</gpx>